Christina O — C6FN7 — position and weather

sailwx.info

Track history (hours):
 
Tides and Currents Weather Stations Pressure Air Temp Water Temp Dewpoint Dewpoint Depression Visibility Wind Speed Wind Dir Waves Ship Positions

Christina O

Operator: V Ships Leisure SAM

Last reported at 2018-Jan-07 20:54 UTC. Time now 2018-Jan-22 08:47 UTC.
Position N 31°40' W 123°05'.
Warning: this ship's position is 14 days out of date.

Length 186 m; draft 6.1 m.

Type: Passenger vessel. MMSI: 308322000.

Date/timePositionNaut miles runAvg speedWind from/ knotsBaromVisibWave heightAir tempDewpointWater temp
2018-Jan-07 20:54N 31°40' W 123°05'716.8
2018-Jan-07 20:30N 31°42' W 122°57'917.1
2018-Jan-07 20:00N 31°44' W 122°48'816.8
2018-Jan-07 19:30N 31°47' W 122°39'1116.9
2018-Jan-07 18:50N 31°51' W 122°26'616.9
2018-Jan-07 18:30N 31°53' W 122°20'817.2
2018-Jan-07 18:00N 31°55' W 122°10'816.9
2018-Jan-07 17:30N 31°58' W 122°01'917.0
2018-Jan-07 17:00N 32°01' W 121°51'1216.9
2018-Jan-07 16:18N 32°05' W 121°38'516.8
2018-Jan-07 16:00N 32°06' W 121°32'816.6
2018-Jan-07 15:30N 32°09' W 121°23'816.7
2018-Jan-07 15:00N 32°11' W 121°14'816.4
2018-Jan-07 14:30N 32°14' W 121°05'816.2
2018-Jan-07 14:00N 32°17' W 120°55'816.4
2018-Jan-07 13:30N 32°19' W 120°46'816.5
2018-Jan-07 13:00N 32°22' W 120°37'816.7
2018-Jan-07 12:30N 32°25' W 120°28'1916.6
2018-Jan-07 11:21N 32°31' W 120°06'816.6
2018-Jan-07 10:53N 32°33' W 119°57'816.5
2018-Jan-07 10:22N 32°36' W 119°48'616.2
2018-Jan-07 10:00N 32°38' W 119°41'816.2
2018-Jan-07 09:30N 32°41' W 119°32'816.3
2018-Jan-07 09:00N 32°44' W 119°24'816.6
2018-Jan-07 08:30N 32°49' W 119°15'816.7
2018-Jan-07 08:00N 32°54' W 119°07'816.3
2018-Jan-07 07:30N 32°58' W 118°59'816.3
2018-Jan-07 07:00N 33°03' W 118°51'816.6
2018-Jan-07 06:30N 33°08' W 118°43'1016.7
2018-Jan-07 05:53N 33°11' W 118°31'817.0
2018-Jan-07 05:26N 33°13' W 118°22'817.1
2018-Jan-07 04:59N 33°15' W 118°13'1313.3
2018-Jan-07 03:58N 33°28' W 118°10'715.7
2018-Jan-07 03:30N 33°35' W 118°13'510.1
2018-Jan-07 03:01N 33°40' W 118°15'4 8.4
2018-Jan-07 02:29N 33°44' W 118°17'1 0.2
2018-Jan-06 21:59N 33°45' W 118°17'0 0.0
2018-Jan-06 14:02N 33°45' W 118°17'0 2.5
2018-Jan-06 14:00N 33°44' W 118°17'5 6.2
2018-Jan-06 13:16N 33°40' W 118°14'2 7.9
2018-Jan-06 12:59N 33°39' W 118°13'5 9.8
2018-Jan-06 12:29N 33°34' W 118°09'510.6
2018-Jan-06 12:00N 33°30' W 118°07'611.3
2018-Jan-06 11:30N 33°24' W 118°05'612.4
2018-Jan-06 11:01N 33°19' W 118°02'612.7
2018-Jan-06 10:31N 33°13' W 117°59'612.6
2018-Jan-06 10:00N 33°07' W 117°56'612.6
2018-Jan-06 09:31N 33°01' W 117°54'612.8
2018-Jan-06 09:00N 32°55' W 117°50'612.8
2018-Jan-06 08:31N 32°50' W 117°47'612.8
2018-Jan-06 08:01N 32°44' W 117°44'612.6
2018-Jan-06 07:31N 32°38' W 117°41'612.7
2018-Jan-06 07:01N 32°32' W 117°38'612.7
2018-Jan-06 06:31N 32°26' W 117°36'612.4
2018-Jan-06 06:01N 32°20' W 117°33'812.8
2018-Jan-06 05:21N 32°12' W 117°30'4514.2
2018-Jan-06 02:13N 31°30' W 117°12'315.2
2018-Jan-06 02:00N 31°27' W 117°11'1015.0
2018-Jan-06 01:19N 31°18' W 117°07'515.1
2018-Jan-06 01:00N 31°13' W 117°05'715.0
2018-Jan-06 00:30N 31°06' W 117°02'815.2
2018-Jan-06 00:00N 30°59' W 116°59'715.0
2018-Jan-05 23:30N 30°52' W 116°56'815.4
2018-Jan-05 23:00N 30°45' W 116°53'815.4
2018-Jan-05 22:30N 30°38' W 116°50'815.4
2018-Jan-05 22:00N 30°30' W 116°47'714.9
2018-Jan-05 21:30N 30°23' W 116°44'  
Track history (hours):
 
Tides and Currents Weather Stations Pressure Air Temp Water Temp Dewpoint Dewpoint Depression Visibility Wind Speed Wind Dir Waves Ship Positions

Christina O

Operator: V Ships Leisure SAM

Last reported at 2018-Jan-07 20:54 UTC. Time now 2018-Jan-22 08:47 UTC.
Position N 31°40' W 123°05'.
Warning: this ship's position is 14 days out of date.

Length 186 m; draft 6.1 m.

Type: Passenger vessel. MMSI: 308322000.

Date/timePositionNaut miles runAvg speedWind from/ knotsBaromVisibWave heightAir tempDewpointWater temp
2018-Jan-07 20:54N 31°40' W 123°05'716.8
2018-Jan-07 20:30N 31°42' W 122°57'917.1
2018-Jan-07 20:00N 31°44' W 122°48'816.8
2018-Jan-07 19:30N 31°47' W 122°39'1116.9
2018-Jan-07 18:50N 31°51' W 122°26'616.9
2018-Jan-07 18:30N 31°53' W 122°20'817.2
2018-Jan-07 18:00N 31°55' W 122°10'816.9
2018-Jan-07 17:30N 31°58' W 122°01'917.0
2018-Jan-07 17:00N 32°01' W 121°51'1216.9
2018-Jan-07 16:18N 32°05' W 121°38'516.8
2018-Jan-07 16:00N 32°06' W 121°32'816.6
2018-Jan-07 15:30N 32°09' W 121°23'816.7
2018-Jan-07 15:00N 32°11' W 121°14'816.4
2018-Jan-07 14:30N 32°14' W 121°05'816.2
2018-Jan-07 14:00N 32°17' W 120°55'816.4
2018-Jan-07 13:30N 32°19' W 120°46'816.5
2018-Jan-07 13:00N 32°22' W 120°37'816.7
2018-Jan-07 12:30N 32°25' W 120°28'1916.6
2018-Jan-07 11:21N 32°31' W 120°06'816.6
2018-Jan-07 10:53N 32°33' W 119°57'816.5
2018-Jan-07 10:22N 32°36' W 119°48'616.2
2018-Jan-07 10:00N 32°38' W 119°41'816.2
2018-Jan-07 09:30N 32°41' W 119°32'816.3
2018-Jan-07 09:00N 32°44' W 119°24'816.6
2018-Jan-07 08:30N 32°49' W 119°15'816.7
2018-Jan-07 08:00N 32°54' W 119°07'816.3
2018-Jan-07 07:30N 32°58' W 118°59'816.3
2018-Jan-07 07:00N 33°03' W 118°51'816.6
2018-Jan-07 06:30N 33°08' W 118°43'1016.7
2018-Jan-07 05:53N 33°11' W 118°31'817.0
2018-Jan-07 05:26N 33°13' W 118°22'817.1
2018-Jan-07 04:59N 33°15' W 118°13'1313.3
2018-Jan-07 03:58N 33°28' W 118°10'715.7
2018-Jan-07 03:30N 33°35' W 118°13'510.1
2018-Jan-07 03:01N 33°40' W 118°15'4 8.4
2018-Jan-07 02:29N 33°44' W 118°17'1 0.2
2018-Jan-06 21:59N 33°45' W 118°17'0 0.0
2018-Jan-06 14:02N 33°45' W 118°17'0 2.5
2018-Jan-06 14:00N 33°44' W 118°17'5 6.2
2018-Jan-06 13:16N 33°40' W 118°14'2 7.9
2018-Jan-06 12:59N 33°39' W 118°13'5 9.8
2018-Jan-06 12:29N 33°34' W 118°09'510.6
2018-Jan-06 12:00N 33°30' W 118°07'611.3
2018-Jan-06 11:30N 33°24' W 118°05'612.4
2018-Jan-06 11:01N 33°19' W 118°02'612.7
2018-Jan-06 10:31N 33°13' W 117°59'612.6
2018-Jan-06 10:00N 33°07' W 117°56'612.6
2018-Jan-06 09:31N 33°01' W 117°54'612.8
2018-Jan-06 09:00N 32°55' W 117°50'612.8
2018-Jan-06 08:31N 32°50' W 117°47'612.8
2018-Jan-06 08:01N 32°44' W 117°44'612.6
2018-Jan-06 07:31N 32°38' W 117°41'612.7
2018-Jan-06 07:01N 32°32' W 117°38'612.7
2018-Jan-06 06:31N 32°26' W 117°36'612.4
2018-Jan-06 06:01N 32°20' W 117°33'812.8
2018-Jan-06 05:21N 32°12' W 117°30'4514.2
2018-Jan-06 02:13N 31°30' W 117°12'315.2
2018-Jan-06 02:00N 31°27' W 117°11'1015.0
2018-Jan-06 01:19N 31°18' W 117°07'515.1
2018-Jan-06 01:00N 31°13' W 117°05'715.0
2018-Jan-06 00:30N 31°06' W 117°02'815.2
2018-Jan-06 00:00N 30°59' W 116°59'715.0
2018-Jan-05 23:30N 30°52' W 116°56'815.4
2018-Jan-05 23:00N 30°45' W 116°53'815.4
2018-Jan-05 22:30N 30°38' W 116°50'815.4
2018-Jan-05 22:00N 30°30' W 116°47'714.9
2018-Jan-05 21:30N 30°23' W 116°44'  

Dump ship's entire track history